Time;durP1;ratioP1;P1;durP2;ratioP2;P2;SDS_P1;SDS_P2;PMS_P1;PMS_P2;Temp;Humidity;BMP_temperature;BMP_pressure;BME280_temperature;BME280_humidity;BME280_pressure;Samples;Min_cycle;Max_cycle;Signal;HPM_P1;HPM_P2
2024/01/06 00:01:21;;;;;;;46.50;29.73;;;2.40;99.90;;;;;;4938710;28;20240;-52
2024/01/06 00:03:46;;;;;;;50.20;30.20;;;2.40;99.90;;;;;;4937520;28;20217;-52
2024/01/06 00:06:13;;;;;;;43.97;30.03;;;2.40;99.90;;;;;;4941482;28;20211;-61
2024/01/06 00:08:39;;;;;;;48.03;29.90;;;2.40;99.90;;;;;;4940090;28;20252;-64
2024/01/06 00:11:04;;;;;;;47.50;30.10;;;2.60;99.90;;;;;;4941812;28;20565;-63
2024/01/06 00:13:30;;;;;;;45.40;29.17;;;2.60;99.90;;;;;;4942455;28;20239;-54
2024/01/06 00:15:56;;;;;;;43.17;28.17;;;2.60;99.90;;;;;;4938403;28;20956;-53
2024/01/06 00:18:21;;;;;;;47.87;29.40;;;2.50;99.90;;;;;;4937239;28;20311;-53
2024/01/06 00:20:47;;;;;;;46.57;26.87;;;2.50;99.90;;;;;;4939384;28;20258;-59
2024/01/06 00:23:12;;;;;;;45.17;28.17;;;2.40;99.90;;;;;;4946462;28;20202;-52
2024/01/06 00:25:37;;;;;;;45.47;28.70;;;2.50;99.90;;;;;;4934681;28;21021;-52
2024/01/06 00:28:03;;;;;;;48.17;28.97;;;2.60;99.90;;;;;;4923861;28;20257;-54
2024/01/06 00:30:29;;;;;;;40.20;27.93;;;2.60;99.90;;;;;;4927771;29;20217;-53
2024/01/06 00:32:54;;;;;;;43.07;27.17;;;2.50;99.90;;;;;;4935988;28;20216;-53
2024/01/06 00:35:20;;;;;;;36.70;24.53;;;2.50;99.90;;;;;;4935752;28;20312;-53
2024/01/06 00:37:45;;;;;;;42.27;25.67;;;2.40;99.90;;;;;;4934898;28;20216;-53
2024/01/06 00:40:11;;;;;;;46.57;28.17;;;2.30;99.90;;;;;;4935120;28;20879;-53
2024/01/06 00:42:37;;;;;;;43.57;29.50;;;2.30;99.90;;;;;;4935572;28;20216;-54
2024/01/06 00:45:04;;;;;;;48.20;27.90;;;2.40;99.90;;;;;;4941122;28;20202;-52
2024/01/06 00:47:29;;;;;;;44.23;27.67;;;2.60;99.90;;;;;;4941640;28;20200;-51
2024/01/06 00:49:54;;;;;;;43.63;27.83;;;2.50;99.90;;;;;;4924031;28;20937;-55
2024/01/06 00:52:20;;;;;;;44.00;26.67;;;2.40;99.90;;;;;;4933384;29;20209;-52
2024/01/06 00:54:47;;;;;;;47.93;28.80;;;2.30;99.90;;;;;;4934000;28;23176;-52
2024/01/06 00:57:12;;;;;;;36.90;26.80;;;2.30;99.90;;;;;;4940883;28;20220;-52
2024/01/06 00:59:38;;;;;;;41.80;24.80;;;2.30;99.90;;;;;;4937617;28;20260;-52
2024/01/06 01:02:03;;;;;;;43.47;23.53;;;2.30;99.90;;;;;;4939433;28;20238;-52
2024/01/06 01:04:29;;;;;;;40.27;26.13;;;2.30;99.90;;;;;;4941170;28;20209;-52
2024/01/06 01:06:54;;;;;;;40.47;25.60;;;2.20;99.90;;;;;;4938972;28;20209;-52
2024/01/06 01:09:20;;;;;;;40.97;28.63;;;2.20;99.90;;;;;;4937410;28;20654;-51
2024/01/06 01:11:45;;;;;;;40.57;26.73;;;2.10;99.90;;;;;;4941190;28;20215;-51
2024/01/06 01:14:11;;;;;;;36.27;26.20;;;2.20;99.90;;;;;;4938497;28;20205;-51
2024/01/06 01:16:36;;;;;;;39.70;25.50;;;2.30;99.90;;;;;;4937477;28;20238;-52
2024/01/06 01:19:02;;;;;;;40.10;26.17;;;2.30;99.90;;;;;;4935190;28;20208;-62
2024/01/06 01:21:28;;;;;;;32.30;21.00;;;2.30;99.90;;;;;;4939034;28;20202;-53
2024/01/06 01:23:53;;;;;;;38.70;25.57;;;2.20;99.90;;;;;;4937178;28;20208;-52
2024/01/06 01:26:19;;;;;;;34.67;24.43;;;2.10;99.90;;;;;;4938189;28;20243;-51
2024/01/06 01:28:44;;;;;;;43.17;26.70;;;2.00;99.90;;;;;;4933788;28;20289;-52
2024/01/06 01:31:10;;;;;;;37.87;25.20;;;2.00;99.90;;;;;;4933141;29;20228;-52
2024/01/06 01:33:35;;;;;;;37.30;24.40;;;1.90;99.90;;;;;;4937690;28;20210;-52
2024/01/06 01:36:01;;;;;;;44.27;28.10;;;2.00;99.90;;;;;;4937340;28;20202;-51
2024/01/06 01:38:26;;;;;;;40.90;27.37;;;2.00;99.90;;;;;;4936609;28;20233;-52
2024/01/06 01:40:52;;;;;;;41.07;26.43;;;2.10;99.90;;;;;;4939977;28;20255;-51
2024/01/06 01:43:21;;;;;;;42.67;26.53;;;2.20;99.90;;;;;;4938768;28;20209;-52
2024/01/06 01:45:56;;;;;;;31.73;23.37;;;2.20;99.90;;;;;;4944764;28;20208;-52
2024/01/06 01:48:22;;;;;;;39.63;24.80;;;2.20;99.90;;;;;;4934261;28;20198;-52
2024/01/06 01:50:48;;;;;;;39.00;25.47;;;2.30;99.90;;;;;;4938726;28;20222;-51
2024/01/06 01:53:14;;;;;;;37.80;22.33;;;2.20;99.90;;;;;;4938288;28;20631;-52
2024/01/06 01:55:41;;;;;;;31.17;18.83;;;2.10;99.90;;;;;;4937668;28;20284;-51
2024/01/06 01:58:07;;;;;;;42.30;27.73;;;2.00;99.90;;;;;;4936958;28;20773;-50
2024/01/06 02:00:32;;;;;;;40.93;24.63;;;1.90;99.90;;;;;;4939554;28;20210;-51
2024/01/06 02:02:59;;;;;;;39.40;24.50;;;1.80;99.90;;;;;;4932977;28;20892;-50
2024/01/06 02:05:25;;;;;;;40.97;25.23;;;1.90;99.90;;;;;;4915703;28;20916;-51
2024/01/06 02:07:51;;;;;;;36.77;24.63;;;2.00;99.90;;;;;;4938467;28;20229;-51
2024/01/06 02:10:17;;;;;;;36.57;23.57;;;2.10;99.90;;;;;;4936315;28;20284;-51
2024/01/06 02:12:42;;;;;;;41.00;25.63;;;2.10;99.90;;;;;;4934847;28;20248;-51
2024/01/06 02:15:08;;;;;;;41.87;26.20;;;2.10;99.90;;;;;;4941545;28;20272;-51
2024/01/06 02:17:34;;;;;;;38.43;25.43;;;2.20;99.90;;;;;;4936096;28;20224;-54
2024/01/06 02:19:59;;;;;;;38.97;25.50;;;2.40;99.90;;;;;;4937386;28;20629;-51
2024/01/06 02:22:25;;;;;;;38.40;24.43;;;2.30;99.90;;;;;;4937006;28;20707;-52
2024/01/06 02:24:50;;;;;;;35.33;24.13;;;2.40;99.90;;;;;;4937193;28;20207;-62
2024/01/06 02:27:15;;;;;;;41.10;26.33;;;2.50;99.90;;;;;;4933769;28;20212;-62
2024/01/06 02:29:41;;;;;;;39.50;25.57;;;2.40;99.90;;;;;;4939829;28;20719;-52
2024/01/06 02:32:06;;;;;;;36.67;23.27;;;2.30;99.90;;;;;;4944806;28;20216;-52
2024/01/06 02:34:32;;;;;;;37.23;25.10;;;2.40;99.90;;;;;;4943106;28;20230;-49
2024/01/06 02:36:58;;;;;;;35.93;23.83;;;2.40;99.90;;;;;;4942745;28;20717;-50
2024/01/06 02:39:23;;;;;;;38.73;24.20;;;2.40;99.90;;;;;;4931166;29;20200;-49
2024/01/06 02:41:49;;;;;;;38.10;22.43;;;2.30;99.90;;;;;;4931244;28;20206;-49
2024/01/06 02:44:15;;;;;;;35.97;23.87;;;2.40;99.90;;;;;;4933361;28;20944;-48
2024/01/06 02:46:40;;;;;;;38.50;23.83;;;2.40;99.90;;;;;;4932120;28;20205;-50
2024/01/06 02:49:07;;;;;;;26.53;18.17;;;2.50;99.90;;;;;;4933808;28;20780;-52
2024/01/06 02:51:32;;;;;;;34.47;21.93;;;2.30;99.90;;;;;;4934218;28;20231;-50
2024/01/06 02:53:58;;;;;;;36.50;22.60;;;2.30;99.90;;;;;;4939214;28;20199;-50
2024/01/06 02:56:23;;;;;;;35.07;22.00;;;2.30;99.90;;;;;;4935361;28;20788;-50
2024/01/06 02:58:48;;;;;;;36.00;23.43;;;2.20;99.90;;;;;;4935148;28;20509;-51
2024/01/06 03:01:14;;;;;;;39.53;24.70;;;2.20;99.90;;;;;;4937158;28;20217;-49
2024/01/06 03:03:39;;;;;;;37.67;22.10;;;2.20;99.90;;;;;;4939062;28;20277;-48
2024/01/06 03:06:05;;;;;;;35.13;22.97;;;2.10;99.90;;;;;;4938147;28;20868;-50
2024/01/06 03:08:31;;;;;;;38.67;24.37;;;2.10;99.90;;;;;;4935629;28;20201;-50
2024/01/06 03:10:56;;;;;;;36.30;24.47;;;2.10;99.90;;;;;;4935280;28;21149;-50
2024/01/06 03:13:22;;;;;;;41.43;24.03;;;2.20;99.90;;;;;;4931834;28;20210;-49
2024/01/06 03:15:47;;;;;;;34.33;21.23;;;2.20;99.90;;;;;;4938374;28;20799;-50
2024/01/06 03:18:13;;;;;;;39.10;23.47;;;2.20;99.90;;;;;;4940311;28;20259;-50
2024/01/06 03:20:38;;;;;;;34.60;23.00;;;2.20;99.90;;;;;;4934864;28;20703;-50
2024/01/06 03:23:04;;;;;;;33.37;21.93;;;2.20;99.90;;;;;;4935423;28;20204;-51
2024/01/06 03:25:29;;;;;;;37.43;23.17;;;2.30;99.90;;;;;;4934729;28;20202;-50
2024/01/06 03:27:55;;;;;;;34.30;22.27;;;2.40;99.90;;;;;;4931281;28;20286;-50
2024/01/06 03:30:20;;;;;;;33.20;22.90;;;2.20;99.90;;;;;;4916867;28;20588;-49
2024/01/06 03:32:46;;;;;;;37.67;22.93;;;2.10;99.90;;;;;;4931494;28;20295;-50
2024/01/06 03:35:11;;;;;;;40.73;23.10;;;2.00;99.90;;;;;;4933220;28;20296;-50
2024/01/06 03:37:36;;;;;;;32.77;22.50;;;2.00;99.90;;;;;;4932978;28;20227;-49
2024/01/06 03:40:02;;;;;;;31.43;19.73;;;1.80;99.90;;;;;;4914738;28;20283;-49
2024/01/06 03:42:28;;;;;;;46.50;26.07;;;1.80;99.90;;;;;;4931075;28;20232;-49
2024/01/06 03:44:53;;;;;;;37.60;23.80;;;1.70;99.90;;;;;;4933732;28;20195;-51
2024/01/06 03:47:19;;;;;;;41.50;23.50;;;1.70;99.90;;;;;;4937107;28;20212;-50
2024/01/06 03:49:44;;;;;;;39.53;24.33;;;1.80;99.90;;;;;;4928749;28;20726;-48
2024/01/06 03:52:10;;;;;;;36.13;23.70;;;1.90;99.90;;;;;;4931192;28;20218;-49
2024/01/06 03:54:35;;;;;;;37.50;24.30;;;1.90;99.90;;;;;;4931242;28;20216;-49
2024/01/06 03:57:01;;;;;;;42.00;26.27;;;1.70;99.90;;;;;;4931029;28;20231;-49
2024/01/06 03:59:26;;;;;;;39.77;24.87;;;1.80;99.90;;;;;;4930639;28;20206;-49
2024/01/06 04:01:52;;;;;;;39.63;22.87;;;1.90;99.90;;;;;;4931862;28;20331;-50
2024/01/06 04:04:17;;;;;;;43.93;24.20;;;2.00;99.90;;;;;;4914366;28;20204;-49
2024/01/06 04:06:43;;;;;;;40.83;25.30;;;2.10;99.90;;;;;;4934472;28;20238;-50
2024/01/06 04:09:09;;;;;;;45.97;25.10;;;2.00;99.90;;;;;;4936333;28;20960;-49
2024/01/06 04:11:34;;;;;;;36.87;24.33;;;2.10;99.90;;;;;;4936018;28;20234;-50
2024/01/06 04:14:00;;;;;;;40.87;25.00;;;2.20;99.90;;;;;;4930613;28;20285;-51
2024/01/06 04:16:27;;;;;;;39.00;24.33;;;2.20;99.90;;;;;;4930281;28;20229;-49
2024/01/06 04:18:53;;;;;;;33.97;24.60;;;2.20;99.90;;;;;;4934573;28;20226;-49
2024/01/06 04:21:18;;;;;;;36.50;23.20;;;2.30;99.90;;;;;;4930914;28;20218;-50
2024/01/06 04:23:43;;;;;;;38.43;24.03;;;2.30;99.90;;;;;;4932245;28;20996;-50
2024/01/06 04:26:09;;;;;;;42.13;25.43;;;2.20;99.90;;;;;;4936965;28;20212;-50
2024/01/06 04:28:35;;;;;;;42.17;25.57;;;2.20;99.90;;;;;;4938510;28;21053;-50
2024/01/06 04:31:00;;;;;;;46.70;25.97;;;2.20;99.90;;;;;;4938745;28;20246;-49
2024/01/06 04:33:26;;;;;;;37.90;23.30;;;2.30;99.90;;;;;;4935734;28;20202;-50
2024/01/06 04:35:51;;;;;;;41.23;24.87;;;2.30;99.90;;;;;;4937811;28;20695;-50
2024/01/06 04:38:17;;;;;;;40.00;22.97;;;2.30;99.90;;;;;;4941484;28;20225;-50
2024/01/06 04:40:43;;;;;;;36.03;22.60;;;2.30;99.90;;;;;;4938344;28;20206;-49
2024/01/06 04:43:08;;;;;;;44.03;25.80;;;2.40;99.90;;;;;;4937970;28;21169;-49
2024/01/06 04:45:34;;;;;;;36.00;24.30;;;2.40;99.90;;;;;;4936191;28;20221;-49
2024/01/06 04:48:00;;;;;;;40.60;25.30;;;2.40;99.90;;;;;;4937719;28;20206;-49
2024/01/06 04:50:25;;;;;;;43.83;24.33;;;2.50;99.90;;;;;;4931199;28;20219;-49
2024/01/06 04:52:51;;;;;;;42.83;24.47;;;2.40;99.90;;;;;;4936885;28;20213;-49
2024/01/06 04:55:16;;;;;;;41.80;24.37;;;2.40;99.90;;;;;;4941198;28;20738;-49
2024/01/06 04:57:42;;;;;;;42.20;24.33;;;2.50;99.90;;;;;;4937316;28;20217;-49
2024/01/06 05:00:07;;;;;;;39.10;24.43;;;2.40;99.90;;;;;;4942912;28;20234;-48
2024/01/06 05:02:34;;;;;;;41.50;24.37;;;2.50;99.90;;;;;;4941292;28;20205;-49
2024/01/06 05:04:59;;;;;;;42.23;23.70;;;2.60;99.90;;;;;;4939302;28;20225;-49
2024/01/06 05:07:25;;;;;;;38.97;23.47;;;2.50;99.90;;;;;;4938864;28;20986;-50
2024/01/06 05:09:50;;;;;;;43.00;23.70;;;2.40;99.90;;;;;;4937043;28;20306;-50
2024/01/06 05:12:15;;;;;;;45.67;25.73;;;2.30;99.90;;;;;;4937895;28;20221;-50
2024/01/06 05:14:41;;;;;;;41.90;24.67;;;2.30;99.90;;;;;;4941525;28;20587;-50
2024/01/06 05:17:08;;;;;;;34.67;23.70;;;2.30;99.90;;;;;;4934369;28;20222;-49
2024/01/06 05:19:34;;;;;;;36.37;24.03;;;2.20;99.90;;;;;;4938538;28;20218;-49
2024/01/06 05:21:59;;;;;;;36.90;25.17;;;2.10;99.90;;;;;;4939153;28;20212;-49
2024/01/06 05:24:25;;;;;;;42.43;25.17;;;2.00;99.90;;;;;;4938259;28;20223;-49
2024/01/06 05:26:50;;;;;;;42.53;26.37;;;2.00;99.90;;;;;;4941002;28;20192;-49
2024/01/06 05:29:16;;;;;;;42.93;25.77;;;2.00;99.90;;;;;;4940846;28;20332;-50
2024/01/06 05:31:42;;;;;;;44.80;27.77;;;2.10;99.90;;;;;;4938300;28;20787;-49
2024/01/06 05:34:07;;;;;;;41.60;26.17;;;2.10;99.90;;;;;;4936502;28;20218;-49
2024/01/06 05:36:33;;;;;;;46.27;27.77;;;2.20;99.90;;;;;;4939587;28;20704;-57
2024/01/06 05:39:00;;;;;;;48.93;27.50;;;2.10;99.90;;;;;;4937887;28;20224;-49
2024/01/06 05:41:25;;;;;;;41.80;27.33;;;2.10;99.90;;;;;;4920775;28;20303;-48
2024/01/06 05:43:51;;;;;;;49.83;28.13;;;2.10;99.90;;;;;;4934804;28;20204;-48
2024/01/06 05:46:24;;;;;;;48.17;27.60;;;2.00;99.90;;;;;;4936804;28;20693;-48
2024/01/06 05:48:49;;;;;;;45.03;27.97;;;2.10;99.90;;;;;;4932899;28;20205;-49
2024/01/06 05:51:15;;;;;;;42.13;26.63;;;2.00;99.90;;;;;;4932013;29;20209;-49
2024/01/06 05:53:41;;;;;;;45.30;26.90;;;2.00;99.90;;;;;;4938836;28;20207;-50
2024/01/06 05:56:08;;;;;;;45.87;26.17;;;2.10;99.90;;;;;;4939781;28;20201;-50
2024/01/06 05:58:34;;;;;;;41.00;25.77;;;2.10;99.90;;;;;;4936495;28;20224;-48
2024/01/06 06:00:59;;;;;;;50.07;27.83;;;2.20;99.90;;;;;;4937655;28;20228;-48
2024/01/06 06:03:25;;;;;;;47.20;25.97;;;2.20;99.90;;;;;;4934411;28;20200;-48
2024/01/06 06:05:50;;;;;;;47.67;27.57;;;2.20;99.90;;;;;;4939529;28;20275;-48
2024/01/06 06:08:16;;;;;;;43.73;25.27;;;2.20;99.90;;;;;;4937843;28;20242;-49
2024/01/06 06:10:59;;;;;;;44.50;26.00;;;2.10;99.90;;;;;;4942061;28;20775;-48
2024/01/06 06:13:24;;;;;;;45.30;26.23;;;2.10;99.90;;;;;;4938161;28;20292;-48
2024/01/06 06:15:50;;;;;;;39.30;26.97;;;2.00;99.90;;;;;;4933007;28;20324;-55
2024/01/06 06:18:16;;;;;;;46.97;24.73;;;2.00;99.90;;;;;;4934004;28;20216;-48
2024/01/06 06:20:43;;;;;;;41.57;25.60;;;1.90;99.90;;;;;;4933695;28;20215;-48
2024/01/06 06:23:09;;;;;;;48.77;26.20;;;2.00;99.90;;;;;;4926734;28;20212;-48
2024/01/06 06:25:36;;;;;;;42.67;25.60;;;2.10;99.90;;;;;;4929686;28;20582;-49
2024/01/06 06:28:03;;;;;;;51.77;27.10;;;1.90;99.90;;;;;;4918977;28;20555;-51
2024/01/06 06:30:28;;;;;;;43.90;27.23;;;1.80;99.90;;;;;;4933031;28;20201;-58
2024/01/06 06:32:54;;;;;;;46.07;27.57;;;1.80;99.90;;;;;;4930639;28;20207;-58
2024/01/06 06:35:19;;;;;;;43.87;25.90;;;1.80;99.90;;;;;;4933992;28;20204;-58
2024/01/06 06:37:45;;;;;;;37.47;21.60;;;1.80;99.90;;;;;;4933225;28;20706;-57
2024/01/06 06:40:11;;;;;;;47.03;25.80;;;1.90;99.90;;;;;;4933717;28;20243;-57
2024/01/06 06:42:36;;;;;;;48.97;26.63;;;1.90;99.90;;;;;;4933756;28;20208;-56
2024/01/06 06:45:03;;;;;;;47.90;26.03;;;1.90;99.90;;;;;;4933330;28;20296;-57
2024/01/06 06:47:28;;;;;;;42.90;24.80;;;2.00;99.90;;;;;;4934693;28;20259;-58
2024/01/06 06:49:53;;;;;;;46.93;26.13;;;1.90;99.90;;;;;;4934569;28;20208;-53
2024/01/06 06:52:19;;;;;;;40.13;24.67;;;1.90;99.90;;;;;;4933366;28;20210;-50
2024/01/06 06:54:45;;;;;;;32.10;21.73;;;2.00;99.90;;;;;;4937871;28;20199;-51
2024/01/06 06:57:11;;;;;;;46.80;26.47;;;2.00;99.90;;;;;;4935790;28;20224;-51
2024/01/06 06:59:37;;;;;;;48.20;26.60;;;1.80;99.90;;;;;;4939231;28;20229;-50
2024/01/06 07:02:03;;;;;;;41.50;24.20;;;1.70;99.90;;;;;;4939038;28;20253;-61
2024/01/06 07:04:28;;;;;;;32.80;20.07;;;1.70;99.90;;;;;;4934875;28;20211;-55
2024/01/06 07:06:54;;;;;;;43.33;24.17;;;1.60;99.90;;;;;;4936757;28;20289;-53
2024/01/06 07:09:23;;;;;;;50.97;26.33;;;1.50;99.90;;;;;;4932774;28;20234;-52
2024/01/06 07:11:48;;;;;;;46.03;25.17;;;1.60;99.90;;;;;;4918332;28;20569;-52
2024/01/06 07:14:14;;;;;;;39.97;25.67;;;1.50;99.90;;;;;;4931290;28;20211;-52
2024/01/06 07:16:39;;;;;;;47.37;26.27;;;1.60;99.90;;;;;;4942945;28;20202;-53
2024/01/06 07:19:05;;;;;;;48.33;24.67;;;1.60;99.90;;;;;;4942610;28;20216;-52
2024/01/06 07:21:31;;;;;;;43.13;24.37;;;1.60;99.90;;;;;;4938254;28;20415;-51
2024/01/06 07:23:56;;;;;;;46.80;24.73;;;1.50;99.90;;;;;;4934840;28;20206;-53
2024/01/06 07:26:22;;;;;;;38.13;24.60;;;1.60;99.90;;;;;;4935878;28;20203;-53
2024/01/06 07:28:47;;;;;;;42.30;25.80;;;1.60;99.90;;;;;;4933776;28;20244;-55
2024/01/06 07:31:14;;;;;;;50.60;26.77;;;1.60;99.90;;;;;;4931712;28;20334;-53
2024/01/06 07:33:39;;;;;;;42.03;26.90;;;1.60;99.90;;;;;;4932920;28;20295;-61
2024/01/06 07:36:05;;;;;;;40.97;24.30;;;1.50;99.90;;;;;;4934871;28;20287;-61
2024/01/06 07:38:31;;;;;;;53.67;26.87;;;1.50;99.90;;;;;;4933215;28;20885;-52
2024/01/06 07:40:57;;;;;;;50.03;25.77;;;1.50;99.90;;;;;;4936034;28;20208;-51
2024/01/06 07:43:22;;;;;;;49.83;25.23;;;1.40;99.90;;;;;;4932350;28;20201;-51
2024/01/06 07:45:48;;;;;;;40.57;23.13;;;1.30;99.90;;;;;;4934774;28;20286;-52
2024/01/06 07:48:15;;;;;;;42.40;24.63;;;1.30;99.90;;;;;;4930779;28;20218;-51
2024/01/06 07:50:40;;;;;;;40.00;23.50;;;1.30;99.90;;;;;;4926673;28;20248;-51
2024/01/06 07:53:06;;;;;;;41.07;20.80;;;1.30;99.90;;;;;;4933785;28;20221;-52
2024/01/06 07:55:31;;;;;;;46.67;26.53;;;1.20;99.90;;;;;;4927908;28;20200;-52
2024/01/06 07:57:57;;;;;;;55.20;27.07;;;1.20;99.90;;;;;;4928047;28;20647;-52
2024/01/06 08:00:22;;;;;;;55.13;28.57;;;1.20;99.90;;;;;;4928135;28;20206;-51
2024/01/06 08:02:48;;;;;;;50.27;26.47;;;1.10;99.90;;;;;;4929331;28;20208;-57
2024/01/06 08:05:13;;;;;;;42.47;25.97;;;1.00;99.90;;;;;;4940297;28;21038;-51
2024/01/06 08:07:39;;;;;;;47.17;28.47;;;1.00;99.90;;;;;;4936126;28;20235;-52
2024/01/06 08:10:05;;;;;;;52.03;27.67;;;1.00;99.90;;;;;;4937875;28;20201;-52
2024/01/06 08:12:31;;;;;;;57.73;29.00;;;1.10;99.90;;;;;;4934405;28;20217;-51
2024/01/06 08:14:56;;;;;;;51.87;28.80;;;1.20;99.90;;;;;;4934313;28;20299;-52
2024/01/06 08:17:22;;;;;;;47.93;27.03;;;1.20;99.90;;;;;;4932155;28;20222;-51
2024/01/06 08:19:47;;;;;;;48.83;29.03;;;1.30;99.90;;;;;;4938301;28;20297;-53
2024/01/06 08:22:13;;;;;;;50.57;25.73;;;1.30;99.90;;;;;;4935514;28;20207;-54
2024/01/06 08:24:42;;;;;;;55.53;29.30;;;1.20;99.90;;;;;;4943611;28;20702;-53
2024/01/06 08:27:07;;;;;;;46.53;28.33;;;1.20;99.90;;;;;;4946668;28;20714;-52
2024/01/06 08:29:34;;;;;;;36.00;22.03;;;1.40;99.90;;;;;;4943669;28;20649;-51
2024/01/06 08:31:59;;;;;;;48.17;26.67;;;1.20;99.90;;;;;;4945248;28;20664;-51
2024/01/06 08:34:25;;;;;;;43.37;25.00;;;1.10;99.90;;;;;;4924555;29;20188;-52
2024/01/06 08:36:50;;;;;;;53.37;28.07;;;1.10;99.90;;;;;;4948349;28;20249;-52
2024/01/06 08:39:16;;;;;;;44.10;24.93;;;1.20;99.90;;;;;;4957844;28;20205;-52
2024/01/06 08:41:42;;;;;;;51.07;27.53;;;1.30;99.90;;;;;;4954527;28;20588;-52
2024/01/06 08:44:07;;;;;;;47.77;27.30;;;1.30;99.90;;;;;;4949112;28;20219;-52
2024/01/06 08:46:33;;;;;;;46.00;26.43;;;1.30;99.90;;;;;;4949191;28;20203;-52
2024/01/06 08:49:00;;;;;;;47.87;25.67;;;1.30;99.90;;;;;;4949090;28;20226;-53
2024/01/06 08:51:26;;;;;;;44.47;25.83;;;1.30;99.90;;;;;;4933321;28;20386;-52
2024/01/06 08:53:52;;;;;;;33.53;21.27;;;1.30;99.90;;;;;;4940981;28;20221;-53
2024/01/06 08:56:18;;;;;;;44.97;27.87;;;1.20;99.90;;;;;;4943389;28;20284;-52
2024/01/06 08:58:44;;;;;;;41.33;25.30;;;1.20;99.90;;;;;;4948821;28;20310;-52
2024/01/06 09:01:10;;;;;;;44.57;26.00;;;1.20;99.90;;;;;;4952308;28;20212;-53
2024/01/06 09:03:36;;;;;;;42.03;23.77;;;1.30;99.90;;;;;;4946123;28;20303;-53
2024/01/06 09:06:01;;;;;;;31.30;21.13;;;1.30;99.90;;;;;;4944238;28;20241;-53
2024/01/06 09:08:26;;;;;;;46.60;25.20;;;1.30;99.90;;;;;;4967263;28;20219;-53
2024/01/06 09:10:56;;;;;;;53.83;25.97;;;1.30;99.90;;;;;;4957972;28;20199;-53
2024/01/06 09:13:23;;;;;;;42.90;25.20;;;1.20;99.90;;;;;;4952360;28;20270;-52
2024/01/06 09:15:48;;;;;;;40.27;23.53;;;1.20;99.90;;;;;;4948664;28;20227;-53
2024/01/06 09:18:14;;;;;;;41.20;25.23;;;1.20;99.90;;;;;;4945569;28;20728;-52
2024/01/06 09:20:39;;;;;;;46.80;26.80;;;1.30;99.90;;;;;;4952754;28;20238;-52
2024/01/06 09:23:05;;;;;;;53.57;28.37;;;1.40;99.90;;;;;;5002092;28;20288;-52
2024/01/06 09:25:30;;;;;;;49.33;28.17;;;1.40;99.90;;;;;;4960189;28;21069;-57
2024/01/06 09:27:55;;;;;;;48.77;28.43;;;1.50;99.90;;;;;;4942701;28;20246;-51
2024/01/06 09:30:21;;;;;;;30.40;21.47;;;1.60;99.90;;;;;;4949410;28;20220;-52
2024/01/06 09:32:46;;;;;;;47.40;25.90;;;1.50;99.90;;;;;;4943024;28;20234;-52
2024/01/06 09:35:12;;;;;;;41.10;23.17;;;1.40;99.90;;;;;;4947636;28;20196;-51
2024/01/06 09:37:37;;;;;;;45.93;26.27;;;1.30;99.90;;;;;;4956054;28;20218;-52
2024/01/06 09:40:03;;;;;;;40.43;22.27;;;1.30;99.90;;;;;;4951186;28;20320;-52
2024/01/06 09:42:29;;;;;;;41.20;24.47;;;1.20;99.90;;;;;;4943112;28;20242;-52
2024/01/06 09:44:55;;;;;;;47.27;27.07;;;1.20;99.90;;;;;;4942626;28;20188;-52
2024/01/06 09:47:22;;;;;;;45.83;26.03;;;1.20;99.90;;;;;;4942579;29;20748;-52
2024/01/06 09:49:52;;;;;;;44.57;27.03;;;1.20;99.90;;;;;;4946549;28;20194;-52
2024/01/06 09:52:22;;;;;;;50.13;30.27;;;1.30;99.90;;;;;;4937245;28;20216;-52
2024/01/06 09:54:52;;;;;;;50.33;27.30;;;1.30;99.90;;;;;;4939095;29;20660;-51
2024/01/06 09:57:17;;;;;;;54.60;28.83;;;1.40;99.90;;;;;;4942339;29;20299;-52
2024/01/06 09:59:46;;;;;;;40.63;26.83;;;1.50;99.90;;;;;;4950821;28;20274;-53
2024/01/06 10:02:16;;;;;;;45.47;27.93;;;1.40;99.90;;;;;;4945360;28;20566;-51
2024/01/06 10:04:43;;;;;;;40.03;24.03;;;1.50;99.90;;;;;;4948722;28;20284;-52
2024/01/06 10:07:12;;;;;;;44.37;25.10;;;1.50;99.90;;;;;;4946728;28;20296;-52
2024/01/06 10:09:37;;;;;;;45.30;27.00;;;1.50;99.90;;;;;;4954090;28;20648;-53
2024/01/06 10:12:03;;;;;;;43.57;25.73;;;1.50;99.90;;;;;;4941181;28;20210;-52
2024/01/06 10:14:28;;;;;;;33.03;21.23;;;1.50;99.90;;;;;;4943199;28;20229;-53
2024/01/06 10:16:54;;;;;;;35.87;21.53;;;1.40;99.90;;;;;;4943397;28;20194;-52
2024/01/06 10:19:20;;;;;;;36.47;24.37;;;1.40;99.90;;;;;;4948571;28;20219;-52
2024/01/06 10:21:46;;;;;;;44.93;25.00;;;1.40;99.90;;;;;;4948400;28;20254;-52
2024/01/06 10:24:11;;;;;;;44.10;25.77;;;1.40;99.90;;;;;;4943922;28;20212;-52
2024/01/06 10:26:38;;;;;;;43.53;25.17;;;1.40;99.90;;;;;;4950588;28;20205;-52
2024/01/06 10:29:04;;;;;;;37.23;24.37;;;1.30;99.90;;;;;;4947642;28;20728;-52
2024/01/06 10:31:30;;;;;;;41.13;25.57;;;1.50;99.90;;;;;;4930004;28;20334;-52
2024/01/06 10:33:56;;;;;;;38.33;24.73;;;1.60;99.90;;;;;;4957500;28;20200;-52
2024/01/06 10:36:23;;;;;;;38.07;25.87;;;1.60;99.90;;;;;;4949070;28;20276;-52
2024/01/06 10:38:49;;;;;;;40.63;26.13;;;1.60;99.90;;;;;;4943337;28;20706;-52
2024/01/06 10:41:16;;;;;;;37.73;24.07;;;1.70;99.90;;;;;;4968845;28;20310;-51
2024/01/06 10:43:43;;;;;;;41.07;25.10;;;1.70;99.90;;;;;;4942615;28;20221;-51
2024/01/06 10:46:12;;;;;;;39.00;24.50;;;1.70;99.90;;;;;;4941532;29;21221;-51
2024/01/06 10:48:42;;;;;;;34.20;24.60;;;1.60;99.90;;;;;;4942561;28;20215;-52
2024/01/06 10:51:08;;;;;;;31.73;20.23;;;1.60;99.90;;;;;;4924325;28;20228;-51
2024/01/06 10:53:39;;;;;;;35.87;22.83;;;1.60;99.90;;;;;;4946375;28;20319;-53
2024/01/06 10:56:07;;;;;;;39.67;23.70;;;1.50;99.90;;;;;;4949895;28;20204;-52
2024/01/06 10:58:37;;;;;;;39.50;22.97;;;1.40;99.90;;;;;;4941213;29;20266;-53
2024/01/06 11:01:03;;;;;;;36.60;22.67;;;1.40;99.90;;;;;;4945814;28;20199;-54
2024/01/06 11:03:29;;;;;;;36.63;24.37;;;1.40;99.90;;;;;;4943430;28;20219;-53
2024/01/06 11:05:57;;;;;;;40.30;22.90;;;1.30;99.90;;;;;;4950507;28;20196;-52
2024/01/06 11:08:23;;;;;;;41.63;23.60;;;1.40;99.90;;;;;;4950538;28;20231;-52
2024/01/06 11:10:49;;;;;;;34.10;23.23;;;1.50;99.90;;;;;;4926435;29;20261;-52
2024/01/06 11:13:20;;;;;;;39.60;24.57;;;1.30;99.90;;;;;;4948635;28;20689;-55
2024/01/06 11:15:53;;;;;;;36.47;22.87;;;1.20;99.90;;;;;;4935429;28;20292;-52
2024/01/06 11:18:37;;;;;;;34.77;23.27;;;1.30;99.90;;;;;;4953723;28;20718;-60
2024/01/06 11:21:14;;;;;;;36.23;22.13;;;1.30;99.90;;;;;;4954756;28;20212;-54
2024/01/06 11:23:40;;;;;;;35.87;21.40;;;1.20;99.90;;;;;;4953595;28;20196;-51
2024/01/06 11:26:06;;;;;;;29.10;18.17;;;1.20;99.90;;;;;;4952147;28;20265;-52
2024/01/06 11:28:46;;;;;;;34.90;23.43;;;1.40;99.90;;;;;;4943751;28;20611;-54
2024/01/06 11:31:12;;;;;;;35.37;23.00;;;1.50;99.90;;;;;;4945913;28;20214;-53
2024/01/06 11:33:46;;;;;;;38.40;19.50;;;1.20;99.90;;;;;;4953281;28;20679;-52
2024/01/06 11:36:15;;;;;;;28.50;20.57;;;1.20;99.90;;;;;;4950443;28;20282;-54
2024/01/06 11:38:40;;;;;;;33.13;21.43;;;1.10;99.90;;;;;;4950184;28;20294;-52
2024/01/06 11:41:07;;;;;;;37.23;22.70;;;1.10;99.90;;;;;;4925856;29;20293;-52
2024/01/06 11:43:35;;;;;;;33.27;23.70;;;0.90;99.90;;;;;;4949479;28;20191;-52
2024/01/06 11:46:02;;;;;;;32.47;23.10;;;0.90;99.90;;;;;;4955409;28;20208;-52
2024/01/06 11:48:31;;;;;;;32.57;23.10;;;0.90;99.90;;;;;;4947850;28;20202;-50
2024/01/06 11:50:58;;;;;;;36.93;26.87;;;1.00;99.90;;;;;;4945673;28;20208;-51
2024/01/06 11:53:26;;;;;;;41.13;26.57;;;1.10;99.90;;;;;;4946199;28;20220;-52
2024/01/06 11:55:52;;;;;;;33.83;23.47;;;1.00;99.90;;;;;;4944370;29;20215;-53
2024/01/06 11:58:17;;;;;;;36.77;24.00;;;1.10;99.90;;;;;;4950785;28;20227;-51
2024/01/06 12:00:43;;;;;;;37.67;25.23;;;1.20;99.90;;;;;;4943323;28;20572;-53
2024/01/06 12:03:10;;;;;;;35.47;22.27;;;1.30;99.90;;;;;;4941943;29;20265;-53
2024/01/06 12:05:35;;;;;;;33.10;22.73;;;1.20;99.90;;;;;;4947398;28;20205;-52
2024/01/06 12:08:06;;;;;;;38.07;23.63;;;1.20;99.90;;;;;;4953186;28;20192;-52
2024/01/06 12:10:33;;;;;;;42.60;25.23;;;1.30;99.90;;;;;;4940374;28;20200;-53
2024/01/06 12:13:03;;;;;;;32.73;20.87;;;1.30;99.90;;;;;;4961946;28;20268;-52
2024/01/06 12:15:31;;;;;;;36.83;24.67;;;1.20;99.90;;;;;;4953849;28;20771;-51
2024/01/06 12:17:57;;;;;;;39.57;27.00;;;1.20;99.90;;;;;;4959025;28;20672;-51
2024/01/06 12:20:24;;;;;;;36.00;22.67;;;1.30;99.90;;;;;;4955166;28;20216;-52
2024/01/06 12:22:53;;;;;;;38.10;23.80;;;1.20;99.90;;;;;;4933978;28;20560;-53
2024/01/06 12:25:21;;;;;;;39.03;23.57;;;1.20;99.90;;;;;;4952874;28;20200;-51
2024/01/06 12:27:48;;;;;;;36.33;22.53;;;1.30;99.90;;;;;;4952329;28;20191;-53
2024/01/06 12:30:16;;;;;;;33.27;21.00;;;1.30;99.90;;;;;;4942293;28;20607;-61